Time;durP1;ratioP1;P1;durP2;ratioP2;P2;SDS_P1;SDS_P2;PMS_P1;PMS_P2;Temp;Humidity;BMP_temperature;BMP_pressure;BME280_temperature;BME280_humidity;BME280_pressure;Samples;Min_cycle;Max_cycle;Signal;HPM_P1;HPM_P2
2021/12/22 00:01:48;;;;;;;12.43;7.63;;;;;;;17.74;40.15;102488.59;5034043;28;20022;-72
2021/12/22 00:04:13;;;;;;;13.95;7.72;;;;;;;17.71;40.56;102490.56;5034882;28;20034;-73
2021/12/22 00:06:38;;;;;;;12.60;7.23;;;;;;;17.70;40.28;102499.41;5034158;28;20382;-72
2021/12/22 00:09:05;;;;;;;13.48;8.13;;;;;;;17.67;40.39;102496.94;5034129;28;20398;-73
2021/12/22 00:11:30;;;;;;;12.52;7.93;;;;;;;17.65;40.22;102499.63;5034593;28;20127;-74
2021/12/22 00:13:56;;;;;;;11.65;7.53;;;;;;;17.63;40.97;102500.69;5033796;28;20037;-72
2021/12/22 00:16:21;;;;;;;12.13;7.68;;;;;;;17.59;40.41;102498.19;5034741;28;20097;-72
2021/12/22 00:18:46;;;;;;;11.00;7.57;;;;;;;17.57;41.04;102493.94;5034433;28;20033;-72
2021/12/22 00:21:12;;;;;;;14.43;7.87;;;;;;;17.54;40.45;102497.56;5033805;28;20056;-72
2021/12/22 00:23:37;;;;;;;13.50;8.45;;;;;;;17.51;40.93;102491.63;5034409;28;20755;-73
2021/12/22 00:26:04;;;;;;;13.02;8.40;;;;;;;17.48;40.67;102495.28;5034052;28;20031;-73
2021/12/22 00:28:29;;;;;;;13.57;8.52;;;;;;;17.47;40.48;102500.63;5033636;28;20116;-73
2021/12/22 00:30:55;;;;;;;12.77;8.52;;;;;;;17.45;40.39;102497.19;5034168;28;20108;-73
2021/12/22 00:33:20;;;;;;;13.00;8.68;;;;;;;17.44;40.85;102499.00;5034354;28;20040;-72
2021/12/22 00:35:46;;;;;;;13.43;8.60;;;;;;;17.41;40.95;102500.00;5033141;28;20037;-73
2021/12/22 00:38:15;;;;;;;12.32;7.78;;;;;;;17.38;41.14;102491.41;5034207;28;20034;-72
2021/12/22 00:40:42;;;;;;;13.93;8.73;;;;;;;17.37;40.86;102489.69;5033640;28;20513;-72
2021/12/22 00:43:08;;;;;;;14.05;8.48;;;;;;;17.36;41.16;102495.91;5033611;28;20042;-72
2021/12/22 00:45:35;;;;;;;14.48;8.77;;;;;;;17.32;40.76;102503.13;5034243;28;20025;-74
2021/12/22 00:48:05;;;;;;;13.48;7.95;;;;;;;17.31;40.85;102497.94;5033896;28;20082;-72
2021/12/22 00:50:32;;;;;;;14.50;8.50;;;;;;;17.29;40.72;102498.03;5033103;28;20033;-73
2021/12/22 00:52:59;;;;;;;12.02;8.18;;;;;;;17.27;40.29;102494.59;5033592;28;20052;-73
2021/12/22 00:55:27;;;;;;;13.48;8.38;;;;;;;17.26;40.31;102485.00;5033665;28;20101;-73
2021/12/22 00:57:52;;;;;;;12.23;8.48;;;;;;;17.27;40.26;102491.94;5032198;28;20021;-72
2021/12/22 01:00:22;;;;;;;15.77;9.23;;;;;;;17.30;40.00;102489.16;5033896;28;20504;-72
2021/12/22 01:02:48;;;;;;;12.98;8.30;;;;;;;17.32;39.87;102491.72;5033418;28;20022;-72
2021/12/22 01:05:15;;;;;;;13.13;8.20;;;;;;;17.34;39.99;102489.84;5033107;28;20033;-72
2021/12/22 01:07:43;;;;;;;14.70;8.05;;;;;;;17.33;39.93;102491.63;5033357;28;20029;-72
2021/12/22 01:10:10;;;;;;;12.57;7.80;;;;;;;17.36;39.59;102496.75;5032748;28;20032;-73
2021/12/22 01:12:36;;;;;;;12.20;8.40;;;;;;;17.37;40.11;102497.59;5033867;28;20033;-73
2021/12/22 01:15:03;;;;;;;12.73;8.40;;;;;;;17.37;39.79;102493.19;5033376;28;20064;-72
2021/12/22 01:17:36;;;;;;;12.60;8.05;;;;;;;17.37;39.64;102497.59;5032930;28;20044;-72
2021/12/22 01:20:12;;;;;;;13.90;8.77;;;;;;;17.37;39.70;102495.84;5033462;28;20029;-72
2021/12/22 01:25:06;;;;;;;13.38;8.02;;;;;;;17.36;39.72;102483.56;5032241;28;20362;-72
2021/12/22 01:27:40;;;;;;;13.02;8.20;;;;;;;17.35;39.53;102483.66;5033519;28;20044;-72
2021/12/22 01:30:11;;;;;;;13.00;8.43;;;;;;;17.34;39.28;102481.94;5033550;28;20068;-72
2021/12/22 01:32:37;;;;;;;12.43;7.85;;;;;;;17.33;39.51;102477.63;5032628;28;20079;-73
2021/12/22 01:35:05;;;;;;;11.80;7.63;;;;;;;17.33;39.46;102472.34;5033225;28;20025;-73
2021/12/22 01:37:31;;;;;;;11.93;7.82;;;;;;;17.30;39.33;102476.00;5033208;28;20034;-72
2021/12/22 01:39:56;;;;;;;13.80;8.38;;;;;;;17.28;39.46;102475.22;5033428;28;20091;-72
2021/12/22 01:42:24;;;;;;;11.90;7.72;;;;;;;17.28;39.56;102482.28;5034453;28;20069;-72
2021/12/22 01:50:28;;;;;;;;;;;;;;;17.23;39.61;102472.81;5035358;28;20076;-72
2021/12/22 01:52:53;;;;;;;11.68;7.93;;;;;;;17.26;39.27;102471.81;5037593;28;19913;-72
2021/12/22 01:55:29;;;;;;;12.38;7.55;;;;;;;17.28;38.98;102471.75;5036895;28;20029;-73
2021/12/22 01:57:54;;;;;;;13.40;8.55;;;;;;;17.29;39.17;102468.16;5037286;28;20030;-72
2021/12/22 02:00:22;;;;;;;12.25;7.25;;;;;;;17.31;39.38;102461.06;5035614;28;20044;-72
2021/12/22 02:02:49;;;;;;;12.77;7.45;;;;;;;17.31;38.91;102471.59;5036215;28;20033;-74
2021/12/22 02:05:18;;;;;;;13.05;8.38;;;;;;;17.30;39.05;102473.34;5038550;28;20048;-73
2021/12/22 02:07:43;;;;;;;13.45;8.07;;;;;;;17.31;39.24;102477.69;5032919;28;20052;-73
2021/12/22 02:10:30;;;;;;;13.50;8.02;;;;;;;17.31;39.21;102485.59;5033065;28;20389;-73
2021/12/22 02:12:56;;;;;;;12.35;7.93;;;;;;;17.31;39.11;102488.25;5033044;28;20038;-72
2021/12/22 02:15:24;;;;;;;13.23;7.85;;;;;;;17.31;38.96;102490.88;5032339;28;20042;-73
2021/12/22 02:17:49;;;;;;;13.55;7.75;;;;;;;17.32;39.10;102489.97;5032741;28;20030;-74
2021/12/22 02:20:15;;;;;;;13.20;8.20;;;;;;;17.33;39.18;102491.63;5032378;28;20024;-73
2021/12/22 02:22:42;;;;;;;14.63;8.15;;;;;;;17.35;39.04;102494.19;5032383;28;20110;-73
2021/12/22 02:25:16;;;;;;;13.52;7.80;;;;;;;17.36;38.94;102493.28;5032814;28;20025;-73
2021/12/22 02:27:53;;;;;;;13.18;8.15;;;;;;;17.34;39.01;102489.84;5031771;28;20109;-73
2021/12/22 02:30:25;;;;;;;12.15;8.75;;;;;;;17.36;38.80;102495.91;5032657;28;20073;-73
2021/12/22 02:35:39;;;;;;;12.23;7.68;;;;;;;17.36;38.63;102498.56;5031882;28;20486;-73
2021/12/22 02:38:12;;;;;;;11.77;7.75;;;;;;;17.34;38.82;102487.22;5032891;28;20029;-73
2021/12/22 02:40:37;;;;;;;11.77;7.07;;;;;;;17.37;38.58;102489.69;5032654;28;20032;-73
2021/12/22 02:43:05;;;;;;;12.25;7.85;;;;;;;17.38;38.52;102489.63;5032025;28;20025;-73
2021/12/22 02:45:34;;;;;;;11.68;7.50;;;;;;;17.39;38.53;102482.56;5035540;28;20069;-73
2021/12/22 02:48:00;;;;;;;11.48;7.53;;;;;;;17.40;38.16;102486.91;5032616;28;20509;-73
2021/12/22 02:50:25;;;;;;;12.40;7.93;;;;;;;17.41;38.17;102483.34;5032132;28;20042;-73
2021/12/22 02:53:09;;;;;;;10.95;7.45;;;;;;;17.41;38.49;102488.63;5032536;28;20022;-73
2021/12/22 02:56:17;;;;;;;11.33;7.20;;;;;;;17.40;38.38;102484.25;5031142;28;20038;-73
2021/12/22 02:58:38;;;;;;;12.15;7.68;;;;;;;17.41;38.31;102478.06;5028217;28;20144;-73
2021/12/22 03:03:50;;;;;;;12.20;7.35;;;;;;;17.42;38.29;102466.59;5031728;28;20057;-73
2021/12/22 03:06:23;;;;;;;;;;;;;;;17.40;38.14;102474.59;5032778;28;20101;-72
2021/12/22 03:08:48;;;;;;;11.38;7.45;;;;;;;17.43;37.92;102475.34;5032056;28;19913;-73
2021/12/22 03:11:13;;;;;;;12.27;7.37;;;;;;;17.43;38.12;102480.63;5031321;28;20028;-74
2021/12/22 03:13:39;;;;;;;14.27;8.30;;;;;;;17.43;37.99;102478.84;5032314;28;20275;-74
2021/12/22 03:16:04;;;;;;;11.85;7.05;;;;;;;17.41;37.72;102488.63;5032291;28;20033;-74
2021/12/22 03:18:31;;;;;;;11.43;7.15;;;;;;;17.43;37.85;102496.44;5031390;28;20033;-73
2021/12/22 03:21:05;;;;;;;12.88;7.40;;;;;;;17.43;37.97;102493.81;5034308;28;20473;-73
2021/12/22 03:23:30;;;;;;;12.95;7.53;;;;;;;17.44;38.26;102500.78;5035022;28;20037;-74
2021/12/22 03:25:57;;;;;;;12.73;7.55;;;;;;;17.44;38.00;102503.44;5035223;28;20108;-72
2021/12/22 03:28:23;;;;;;;10.55;7.22;;;;;;;17.46;37.94;102509.47;5035654;28;20025;-72
2021/12/22 03:30:48;;;;;;;12.02;7.55;;;;;;;17.46;37.87;102498.91;5034395;28;20045;-74
2021/12/22 03:33:13;;;;;;;10.48;7.20;;;;;;;17.45;37.86;102500.72;5035430;28;20025;-73
2021/12/22 03:35:39;;;;;;;11.20;6.93;;;;;;;17.46;37.43;102506.81;5035594;28;20480;-74
2021/12/22 03:38:05;;;;;;;12.07;7.28;;;;;;;17.47;37.49;102505.91;5034520;28;20646;-74
2021/12/22 03:40:30;;;;;;;13.50;7.65;;;;;;;17.45;37.60;102505.97;5035502;28;20035;-73
2021/12/22 03:42:55;;;;;;;11.00;7.10;;;;;;;17.46;37.81;102517.38;5035045;28;20032;-73
2021/12/22 03:45:21;;;;;;;10.93;6.95;;;;;;;17.45;37.65;102497.19;5034617;28;20037;-72
2021/12/22 03:47:47;;;;;;;11.38;7.13;;;;;;;17.45;37.45;102497.19;5035074;28;20172;-73
2021/12/22 03:50:14;;;;;;;11.88;7.05;;;;;;;17.46;37.77;102493.66;5034975;28;20033;-72
2021/12/22 03:52:41;;;;;;;11.88;7.18;;;;;;;17.47;37.64;102484.81;5034263;28;20075;-72
2021/12/22 03:55:07;;;;;;;10.73;6.93;;;;;;;17.47;37.57;102479.53;5035254;28;20036;-73
2021/12/22 03:57:33;;;;;;;10.50;6.70;;;;;;;17.47;37.85;102482.19;5035117;28;20501;-74
2021/12/22 04:00:20;;;;;;;10.60;6.88;;;;;;;17.46;37.74;102486.59;5034156;28;20128;-73
2021/12/22 04:02:45;;;;;;;10.93;6.82;;;;;;;17.46;37.23;102497.13;5034328;28;20061;-72
2021/12/22 04:05:10;;;;;;;12.27;7.63;;;;;;;17.47;37.66;102498.00;5034784;28;20049;-74
2021/12/22 04:07:36;;;;;;;14.23;7.18;;;;;;;17.47;37.44;102492.72;5034535;28;20022;-75
2021/12/22 04:10:18;;;;;;;11.18;6.90;;;;;;;17.48;37.54;102495.28;5034528;28;20030;-73
2021/12/22 04:12:43;;;;;;;11.07;7.05;;;;;;;17.48;37.29;102487.38;5034200;28;20492;-73
2021/12/22 04:15:11;;;;;;;12.27;7.25;;;;;;;17.48;37.27;102487.38;5034496;28;20061;-74
2021/12/22 04:17:37;;;;;;;10.05;6.63;;;;;;;17.48;37.24;102489.13;5034551;28;20037;-73
2021/12/22 04:20:03;;;;;;;11.00;7.05;;;;;;;17.49;37.50;102490.84;5033791;28;20075;-74
2021/12/22 04:22:28;;;;;;;10.27;6.50;;;;;;;17.47;37.48;102487.44;5034383;28;20460;-72
2021/12/22 04:24:53;;;;;;;11.83;7.57;;;;;;;17.47;37.28;102483.03;5034194;28;20378;-72
2021/12/22 04:27:18;;;;;;;11.60;7.10;;;;;;;17.47;37.11;102471.63;5033909;28;20271;-72
2021/12/22 04:29:43;;;;;;;11.13;6.75;;;;;;;17.48;37.54;102470.69;5033753;28;20290;-72
2021/12/22 04:32:12;;;;;;;9.45;6.40;;;;;;;17.48;37.26;102468.91;5033129;28;20041;-73
2021/12/22 04:34:37;;;;;;;10.52;6.35;;;;;;;17.49;37.12;102475.03;5033505;28;20569;-72
2021/12/22 04:37:05;;;;;;;11.25;6.53;;;;;;;17.48;37.28;102468.91;5034045;28;20061;-71
2021/12/22 04:39:32;;;;;;;9.20;6.70;;;;;;;17.47;37.09;102464.56;5034262;28;20033;-72
2021/12/22 04:41:59;;;;;;;10.27;6.35;;;;;;;17.47;37.56;102467.22;5033061;28;20030;-72
2021/12/22 04:44:24;;;;;;;10.30;5.95;;;;;;;17.46;36.98;102465.50;5033603;28;20196;-72
2021/12/22 04:46:50;;;;;;;10.40;6.93;;;;;;;17.47;37.15;102464.56;5033600;28;20538;-72
2021/12/22 04:49:15;;;;;;;10.63;6.37;;;;;;;17.49;37.52;102469.75;5032986;28;20047;-72
2021/12/22 04:51:48;;;;;;;9.57;5.90;;;;;;;17.48;37.10;102468.03;5033476;28;20353;-72
2021/12/22 04:54:32;;;;;;;10.52;6.78;;;;;;;17.47;36.88;102467.22;5033972;28;20033;-72
2021/12/22 04:56:58;;;;;;;10.73;6.68;;;;;;;17.48;37.20;102468.03;5032708;28;20393;-72
2021/12/22 04:59:25;;;;;;;10.18;6.38;;;;;;;17.47;37.09;102469.00;5033949;28;20040;-72
2021/12/22 05:01:51;;;;;;;10.40;6.57;;;;;;;17.47;37.01;102464.56;5033576;28;20041;-72
2021/12/22 05:04:17;;;;;;;9.70;5.95;;;;;;;17.46;36.86;102462.84;5033076;28;20116;-72
2021/12/22 05:06:42;;;;;;;11.23;6.88;;;;;;;17.46;37.03;102457.59;5033275;28;20110;-72
2021/12/22 05:09:07;;;;;;;10.43;5.80;;;;;;;17.47;37.43;102451.41;5032626;28;20033;-72
2021/12/22 05:11:34;;;;;;;10.50;6.72;;;;;;;17.47;37.57;102451.41;5033506;28;20274;-73
2021/12/22 05:14:03;;;;;;;10.07;6.00;;;;;;;17.49;37.34;102451.31;5033530;28;20104;-72
2021/12/22 05:16:29;;;;;;;9.57;6.00;;;;;;;17.48;37.23;102446.97;5032869;28;20053;-72
2021/12/22 05:19:10;;;;;;;11.93;6.82;;;;;;;17.48;37.20;102446.97;5033293;28;20037;-72
2021/12/22 05:21:35;;;;;;;9.95;6.30;;;;;;;17.48;37.17;102449.59;5033201;28;20080;-72
2021/12/22 05:24:00;;;;;;;9.93;6.13;;;;;;;17.48;36.89;102445.19;5032143;28;20037;-72
2021/12/22 05:26:26;;;;;;;9.23;6.18;;;;;;;17.46;37.03;102447.03;5033462;28;20056;-72
2021/12/22 05:28:51;;;;;;;10.30;6.22;;;;;;;17.47;37.10;102446.13;5032832;28;20108;-72
2021/12/22 05:31:17;;;;;;;12.25;6.47;;;;;;;17.48;37.38;102457.50;5032377;28;20064;-72
2021/12/22 05:33:42;;;;;;;9.23;5.68;;;;;;;17.49;36.94;102459.22;5032895;28;20037;-72
2021/12/22 05:36:08;;;;;;;9.73;5.47;;;;;;;17.48;37.02;102444.31;5032947;28;20060;-72
2021/12/22 05:38:36;;;;;;;10.10;6.20;;;;;;;17.48;37.08;102447.84;5032338;28;20025;-72
2021/12/22 05:41:01;;;;;;;8.60;5.15;;;;;;;17.48;37.18;102444.31;5032719;28;20068;-73
2021/12/22 05:43:27;;;;;;;8.90;5.45;;;;;;;17.47;37.18;102438.22;5032829;28;20053;-73
2021/12/22 05:45:52;;;;;;;8.25;5.47;;;;;;;17.47;37.26;102434.72;5031969;28;20508;-72
2021/12/22 05:48:18;;;;;;;8.73;5.13;;;;;;;17.48;37.12;102429.38;5033631;28;20036;-73
2021/12/22 05:50:46;;;;;;;9.00;5.35;;;;;;;17.49;37.40;102428.44;5032527;28;20029;-71
2021/12/22 05:53:11;;;;;;;8.68;5.50;;;;;;;17.50;37.41;102432.78;5032097;28;20037;-72
2021/12/22 05:55:36;;;;;;;8.38;5.50;;;;;;;17.50;37.01;102430.16;5032847;28;20022;-72
2021/12/22 05:58:02;;;;;;;11.00;5.85;;;;;;;17.50;37.01;102430.16;5032257;28;20044;-73
2021/12/22 06:00:28;;;;;;;7.75;4.93;;;;;;;17.50;37.10;102429.28;5032083;28;20105;-72
2021/12/22 06:02:53;;;;;;;8.55;5.35;;;;;;;17.51;36.73;102431.00;5032436;28;20033;-72
2021/12/22 06:05:19;;;;;;;10.23;5.03;;;;;;;17.49;37.22;102417.88;5032055;28;20592;-72
2021/12/22 06:07:45;;;;;;;8.40;5.05;;;;;;;17.51;37.25;102421.28;5032735;28;20286;-73
2021/12/22 06:10:11;;;;;;;10.88;4.93;;;;;;;17.53;37.35;102424.72;5032294;28;20496;-73
2021/12/22 06:12:36;;;;;;;8.75;4.88;;;;;;;17.57;37.39;102428.88;5031941;28;20026;-72
2021/12/22 06:15:04;;;;;;;9.43;5.40;;;;;;;17.61;37.48;102437.47;5032470;28;20311;-73
2021/12/22 06:17:30;;;;;;;9.98;4.75;;;;;;;17.64;37.55;102432.03;5032289;28;20469;-72
2021/12/22 06:19:55;;;;;;;9.48;4.68;;;;;;;17.68;37.55;102435.34;5031471;28;20092;-72
2021/12/22 06:22:29;;;;;;;7.32;4.78;;;;;;;17.70;37.65;102431.69;5032192;28;20045;-73
2021/12/22 06:25:04;;;;;;;8.13;4.60;;;;;;;17.73;37.17;102441.22;5032281;28;20079;-72
2021/12/22 06:27:30;;;;;;;8.57;4.80;;;;;;;17.75;37.00;102437.59;5031843;28;20059;-73
2021/12/22 06:29:58;;;;;;;8.57;4.70;;;;;;;17.75;37.22;102434.94;5031823;28;20042;-73
2021/12/22 06:32:23;;;;;;;6.85;4.60;;;;;;;17.77;37.13;102421.69;5032218;28;20294;-73
2021/12/22 06:34:48;;;;;;;7.00;4.40;;;;;;;17.77;37.34;102427.78;5031204;28;20033;-72
2021/12/22 06:37:14;;;;;;;10.77;5.17;;;;;;;17.79;37.04;102426.88;5032124;28;20321;-73
2021/12/22 06:39:40;;;;;;;7.82;4.53;;;;;;;17.79;37.34;102432.97;5032016;28;20285;-72
2021/12/22 06:42:09;;;;;;;7.78;4.60;;;;;;;17.81;36.86;102435.53;5031287;28;20091;-72
2021/12/22 06:44:37;;;;;;;8.80;4.45;;;;;;;17.82;37.25;102439.88;5032191;28;20592;-72
2021/12/22 06:47:03;;;;;;;7.93;4.68;;;;;;;17.82;37.01;102443.38;5032023;28;20025;-72
2021/12/22 06:49:28;;;;;;;6.93;4.10;;;;;;;17.83;37.19;102437.16;5031260;28;20390;-72
2021/12/22 06:51:54;;;;;;;7.60;4.10;;;;;;;17.85;37.16;102439.69;5031896;28;20036;-72
2021/12/22 06:54:19;;;;;;;7.40;4.27;;;;;;;17.84;36.91;102441.50;5032682;28;20037;-72
2021/12/22 06:56:44;;;;;;;8.63;4.25;;;;;;;17.86;37.21;102438.75;5035158;28;20286;-72
2021/12/22 06:59:12;;;;;;;9.32;4.55;;;;;;;17.87;37.21;102440.47;5036246;28;20109;-72
2021/12/22 07:01:40;;;;;;;9.40;4.75;;;;;;;17.89;37.40;102441.28;5035071;28;20028;-72
2021/12/22 07:04:06;;;;;;;7.28;4.50;;;;;;;17.88;36.94;102445.72;5035805;28;20040;-72
2021/12/22 07:06:32;;;;;;;7.40;4.20;;;;;;;17.91;36.75;102444.66;5035849;28;20033;-73
2021/12/22 07:08:58;;;;;;;6.97;4.07;;;;;;;17.91;36.94;102453.44;5034589;28;20028;-72
2021/12/22 07:11:23;;;;;;;7.60;4.13;;;;;;;17.92;37.41;102451.66;5035913;28;20021;-72
2021/12/22 07:13:48;;;;;;;6.18;4.00;;;;;;;17.92;37.49;102441.09;5035401;28;20037;-72
2021/12/22 07:16:14;;;;;;;7.50;3.88;;;;;;;17.94;37.38;102439.22;5035003;28;20031;-74
2021/12/22 07:18:40;;;;;;;7.68;4.03;;;;;;;17.94;37.03;102440.09;5035375;28;20038;-73
2021/12/22 07:21:05;;;;;;;6.22;3.90;;;;;;;17.95;37.08;102438.31;5035359;28;20504;-73
2021/12/22 07:23:30;;;;;;;8.02;4.47;;;;;;;17.97;37.05;102427.66;5035078;28;20116;-73
2021/12/22 07:25:56;;;;;;;6.43;3.75;;;;;;;17.97;37.14;102428.50;5035440;28;20025;-72
2021/12/22 07:28:21;;;;;;;7.20;3.63;;;;;;;17.98;37.05;102432.00;5035729;28;20056;-73
2021/12/22 07:30:46;;;;;;;7.40;4.33;;;;;;;18.00;37.32;102443.31;5034739;28;20040;-73
2021/12/22 07:33:12;;;;;;;6.70;4.20;;;;;;;17.99;37.27;102442.47;5035975;28;20286;-73
2021/12/22 07:36:05;;;;;;;7.20;4.22;;;;;;;17.97;36.22;102440.84;5035574;28;20544;-73
2021/12/22 07:38:35;;;;;;;8.55;4.00;;;;;;;17.97;37.87;102438.22;5034608;28;20129;-72
2021/12/22 07:41:03;;;;;;;7.90;3.53;;;;;;;17.99;38.94;102439.84;5035680;28;20031;-72
2021/12/22 07:43:29;;;;;;;8.50;3.72;;;;;;;18.02;39.30;102437.00;5035443;28;20029;-72
2021/12/22 07:45:55;;;;;;;7.15;3.28;;;;;;;18.05;39.48;102438.63;5034284;28;20392;-72
2021/12/22 07:48:21;;;;;;;6.75;3.50;;;;;;;18.07;39.75;102440.25;5035502;28;20533;-73
2021/12/22 07:50:47;;;;;;;7.20;3.83;;;;;;;18.10;39.79;102436.59;5034775;28;20133;-73
2021/12/22 07:53:12;;;;;;;5.93;3.25;;;;;;;18.11;39.42;102428.59;5035399;28;20120;-72
2021/12/22 07:55:38;;;;;;;6.28;3.60;;;;;;;18.13;39.76;102431.13;5035360;28;20444;-70
2021/12/22 07:58:03;;;;;;;8.20;3.75;;;;;;;18.17;39.37;102439.75;5034260;28;20044;-74
2021/12/22 08:00:29;;;;;;;6.78;3.40;;;;;;;18.19;39.96;102435.22;5035073;28;20017;-74
2021/12/22 08:02:54;;;;;;;7.05;3.25;;;;;;;18.19;40.09;102433.44;5034772;28;20025;-74
2021/12/22 08:05:19;;;;;;;6.20;3.25;;;;;;;18.19;40.15;102428.16;5034639;28;20053;-74
2021/12/22 08:07:47;;;;;;;7.22;3.47;;;;;;;18.20;39.96;102426.34;5034642;28;20029;-74
2021/12/22 08:10:13;;;;;;;7.80;3.60;;;;;;;18.23;40.00;102428.81;5034602;28;20470;-74
2021/12/22 08:12:44;;;;;;;6.47;3.20;;;;;;;18.24;40.09;102431.38;5034211;28;20017;-73
2021/12/22 08:15:09;;;;;;;7.18;3.45;;;;;;;18.26;40.05;102429.53;5034760;28;20042;-74
2021/12/22 08:17:35;;;;;;;7.05;3.45;;;;;;;18.27;39.94;102428.56;5034817;28;20044;-74
2021/12/22 08:20:02;;;;;;;8.10;3.38;;;;;;;18.29;39.81;102433.75;5033718;28;20065;-74
2021/12/22 08:22:28;;;;;;;6.93;3.40;;;;;;;18.30;40.05;102428.38;5034293;28;20049;-74
2021/12/22 08:24:53;;;;;;;6.57;3.47;;;;;;;18.30;40.43;102427.56;5034249;28;20041;-74
2021/12/22 08:27:19;;;;;;;7.50;3.42;;;;;;;18.31;39.97;102426.63;5033965;28;20022;-73
2021/12/22 08:29:50;;;;;;;6.38;3.60;;;;;;;18.33;40.35;102435.28;5034093;28;20037;-73
2021/12/22 08:32:16;;;;;;;6.63;3.40;;;;;;;18.36;40.28;102436.88;5034589;28;20347;-75
2021/12/22 08:34:42;;;;;;;7.00;3.28;;;;;;;18.35;40.57;102430.78;5033631;28;20421;-73
2021/12/22 08:39:58;;;;;;;7.00;3.50;;;;;;;18.38;40.62;102429.75;5035036;28;20063;-71
2021/12/22 08:42:25;;;;;;;8.55;3.58;;;;;;;18.38;40.21;102435.88;5034980;28;20025;-71
2021/12/22 08:44:50;;;;;;;7.47;3.60;;;;;;;18.38;40.52;102433.22;5034415;28;20026;-70
2021/12/22 08:47:16;;;;;;;9.02;3.47;;;;;;;18.38;40.28;102427.13;5033572;28;20159;-70
2021/12/22 08:49:43;;;;;;;6.22;3.30;;;;;;;18.40;40.34;102427.88;5033551;28;20373;-70
2021/12/22 08:52:08;;;;;;;6.65;3.15;;;;;;;18.41;40.33;102426.94;5033998;28;20040;-70
2021/12/22 08:54:34;;;;;;;6.00;2.92;;;;;;;18.41;40.58;102421.66;5033272;28;20025;-71
2021/12/22 08:56:59;;;;;;;8.43;3.60;;;;;;;18.41;40.17;102426.94;5033080;28;20060;-72
2021/12/22 08:59:25;;;;;;;6.72;3.55;;;;;;;18.41;40.44;102427.78;5034115;28;20063;-71
2021/12/22 09:01:52;;;;;;;8.00;3.30;;;;;;;18.42;40.53;102428.63;5032704;28;20061;-72
2021/12/22 09:04:19;;;;;;;5.45;3.00;;;;;;;18.43;40.84;102425.06;5033841;28;20022;-71
2021/12/22 09:07:05;;;;;;;6.28;3.05;;;;;;;18.44;40.54;102427.59;5033537;28;20061;-70
2021/12/22 09:09:33;;;;;;;5.75;3.10;;;;;;;18.43;40.20;102423.25;5032371;28;20041;-71
2021/12/22 09:11:59;;;;;;;7.38;3.42;;;;;;;18.44;40.49;102426.78;5033508;28;20587;-71
2021/12/22 09:14:25;;;;;;;6.10;2.97;;;;;;;18.44;40.52;102429.41;5033355;28;20469;-70
2021/12/22 09:16:51;;;;;;;5.43;2.85;;;;;;;18.46;40.84;102424.88;5032184;28;20038;-70
2021/12/22 09:19:16;;;;;;;7.40;3.38;;;;;;;18.45;39.35;102421.41;5033112;28;20026;-70
2021/12/22 09:21:42;;;;;;;7.40;3.80;;;;;;;18.39;38.22;102416.47;5032776;28;20099;-68
2021/12/22 09:24:07;;;;;;;7.18;4.25;;;;;;;18.34;37.46;102413.25;5032820;28;20395;-71
2021/12/22 09:26:33;;;;;;;7.63;3.80;;;;;;;18.33;38.99;102426.53;5033394;28;20063;-72
2021/12/22 09:28:59;;;;;;;6.22;3.50;;;;;;;18.34;39.62;102428.22;5033192;28;20018;-70
2021/12/22 09:31:24;;;;;;;6.28;3.28;;;;;;;18.36;39.96;102426.34;5032548;28;20481;-71
2021/12/22 09:33:50;;;;;;;6.72;3.20;;;;;;;18.38;40.13;102427.13;5033053;28;20466;-71
2021/12/22 09:36:16;;;;;;;5.75;3.20;;;;;;;18.39;40.36;102428.78;5032872;28;20025;-71
2021/12/22 09:38:44;;;;;;;8.65;3.10;;;;;;;18.40;40.25;102420.78;5032440;28;20056;-71
2021/12/22 09:41:12;;;;;;;6.30;3.13;;;;;;;18.42;40.38;102421.56;5033291;28;20037;-71
2021/12/22 09:43:38;;;;;;;5.93;3.28;;;;;;;18.43;40.53;102414.50;5032330;28;20045;-72
2021/12/22 09:46:08;;;;;;;6.40;3.10;;;;;;;18.43;40.34;102415.34;5032808;28;20038;-71
2021/12/22 09:53:37;;;;;;;6.30;3.15;;;;;;;18.47;40.55;102416.88;5032923;28;20381;-71
2021/12/22 09:56:04;;;;;;;6.18;2.92;;;;;;;18.47;40.80;102405.47;5032697;28;20425;-71
2021/12/22 09:58:29;;;;;;;7.00;3.78;;;;;;;18.45;37.65;102408.19;5032166;28;20033;-73
2021/12/22 10:00:56;;;;;;;6.90;3.60;;;;;;;18.43;39.12;102414.50;5032612;28;20025;-71
2021/12/22 10:03:23;;;;;;;6.82;3.30;;;;;;;18.42;39.92;102421.56;5032666;28;20046;-73
2021/12/22 10:05:48;;;;;;;8.45;3.15;;;;;;;18.43;40.54;102425.91;5031896;28;20446;-73
2021/12/22 10:08:25;;;;;;;5.78;3.10;;;;;;;18.44;40.35;102417.06;5032752;28;20500;-72
2021/12/22 10:11:08;;;;;;;6.50;3.10;;;;;;;18.44;40.51;102411.78;5032711;28;20029;-73
2021/12/22 10:13:34;;;;;;;5.25;2.80;;;;;;;18.45;40.90;102399.41;5032024;28;20037;-74
2021/12/22 10:16:10;;;;;;;6.78;3.20;;;;;;;18.46;40.45;102399.31;5032281;28;20037;-73
2021/12/22 10:18:35;;;;;;;5.78;2.72;;;;;;;18.46;40.58;102401.97;5031951;28;20031;-73
2021/12/22 10:21:16;;;;;;;5.85;2.88;;;;;;;18.48;40.68;102400.09;5032085;28;20460;-72
2021/12/22 10:23:46;;;;;;;5.30;2.70;;;;;;;18.48;40.59;102396.59;5032312;28;20034;-74
2021/12/22 10:26:16;;;;;;;6.18;2.92;;;;;;;18.48;40.53;102392.19;5031657;28;20025;-73
2021/12/22 10:28:53;;;;;;;7.75;3.28;;;;;;;18.51;40.60;102392.94;5033253;28;20486;-72
2021/12/22 10:31:31;;;;;;;6.63;2.80;;;;;;;18.51;40.50;102391.13;5036602;28;20408;-73
2021/12/22 10:33:58;;;;;;;6.05;3.20;;;;;;;18.52;40.79;102391.97;5035641;28;20026;-73
2021/12/22 10:36:23;;;;;;;5.60;2.63;;;;;;;18.51;40.73;102391.13;5036479;28;20494;-72
2021/12/22 10:38:50;;;;;;;5.22;2.60;;;;;;;18.54;41.01;102390.13;5036044;28;20472;-72
2021/12/22 10:41:16;;;;;;;5.57;2.70;;;;;;;18.54;40.82;102390.13;5035701;28;20030;-72
2021/12/22 10:43:44;;;;;;;5.00;2.67;;;;;;;18.53;40.54;102383.13;5036294;28;20390;-72
2021/12/22 10:46:16;;;;;;;5.95;2.72;;;;;;;18.54;40.89;102380.41;5036440;28;20029;-72
2021/12/22 10:51:32;;;;;;;6.25;2.72;;;;;;;18.55;40.46;102371.56;5036540;28;20075;-70
2021/12/22 10:54:00;;;;;;;6.85;3.47;;;;;;;18.52;39.14;102358.53;5035366;28;20148;-66
2021/12/22 10:56:31;;;;;;;7.20;3.70;;;;;;;18.47;38.60;102366.72;5036050;28;20049;-68
2021/12/22 10:59:00;;;;;;;7.70;3.78;;;;;;;18.47;39.84;102357.97;5035865;28;20042;-68
2021/12/22 11:01:29;;;;;;;5.57;2.95;;;;;;;18.47;40.24;102353.50;5035305;28;20036;-69
2021/12/22 11:04:02;;;;;;;6.15;2.72;;;;;;;18.46;40.46;102346.53;5035554;28;20037;-72
2021/12/22 11:06:30;;;;;;;6.43;2.53;;;;;;;18.49;40.74;102350.78;5036248;28;20025;-67
2021/12/22 11:09:14;;;;;;;7.05;2.83;;;;;;;18.56;40.68;102346.81;5037903;28;20039;-69
2021/12/22 11:11:52;;;;;;;6.75;2.90;;;;;;;18.67;40.75;102349.69;5037211;28;20437;-68
2021/12/22 11:14:22;;;;;;;7.75;2.70;;;;;;;18.81;40.53;102350.66;5036227;28;20040;-69
2021/12/22 11:17:00;;;;;;;6.88;2.90;;;;;;;18.91;40.09;102350.97;5035734;28;20032;-72
2021/12/22 11:19:31;;;;;;;5.50;2.55;;;;;;;19.00;40.75;102345.13;5035975;28;20041;-69
2021/12/22 11:22:09;;;;;;;5.75;2.60;;;;;;;19.08;39.81;102352.59;5034446;28;20551;-74
2021/12/22 11:24:41;;;;;;;5.82;2.63;;;;;;;19.11;39.87;102350.59;5035475;28;20040;-69
2021/12/22 11:27:08;;;;;;;6.28;2.88;;;;;;;19.14;39.92;102353.06;5035847;28;20022;-68
2021/12/22 11:29:41;;;;;;;5.38;2.50;;;;;;;19.17;39.86;102344.94;5034872;28;20022;-69
2021/12/22 11:32:07;;;;;;;5.75;2.70;;;;;;;19.18;39.92;102337.84;5036303;28;20164;-69
2021/12/22 11:34:36;;;;;;;6.78;2.45;;;;;;;19.14;39.89;102331.91;5035224;28;20068;-69
2021/12/22 11:37:07;;;;;;;5.50;2.60;;;;;;;19.14;40.29;102339.84;5034498;28;20508;-69
2021/12/22 11:39:33;;;;;;;4.70;2.22;;;;;;;19.19;39.80;102331.63;5035359;28;20033;-72
2021/12/22 11:42:02;;;;;;;7.20;2.47;;;;;;;19.26;39.86;102332.94;5034726;28;20025;-72
2021/12/22 11:44:30;;;;;;;6.60;2.78;;;;;;;19.34;40.42;102335.09;5034981;28;20057;-70
2021/12/22 11:46:58;;;;;;;6.32;2.53;;;;;;;19.39;40.70;102327.72;5035196;28;20354;-68
2021/12/22 11:49:24;;;;;;;4.75;2.20;;;;;;;19.46;39.99;102317.63;5035198;28;20040;-74